< Cyclone 200106 2001 Season Cyclone 200108 >
Cyclone 200107 (WALTER)
General InformationTrack Information on Google MapsDetailed Wind InformationList of All Images || ResourceGoogle EarthGE AnimationAtom FeedGeoJSON
Detalied Best Track (Time Zone = UTC)
Year Month Day Hour Lat. Long. Pressure (hPa) Wind (kt) Class Image Chart
2001 4 1 04 -10.6 110.7 1003 23 2 Image --
2001 4 1 10 -10.2 110.0 1000 27 2 Image --
2001 4 1 16 -10.0 109.5 998 29 2 Image --
2001 4 1 22 -9.8 109.0 995 35 3 Image --
2001 4 2 04 -9.6 107.9 995 35 3 Image --
2001 4 2 10 -9.4 106.9 992 39 3 Image --
2001 4 2 16 -9.4 105.6 990 41 3 Image --
2001 4 2 22 -9.5 104.5 988 45 3 Image --
2001 4 3 04 -9.6 103.5 985 49 4 Image --
2001 4 3 10 -9.7 102.7 980 54 4 Image --
2001 4 3 16 -9.8 101.7 978 56 4 Image --
2001 4 3 22 -9.9 100.9 970 64 5 Image --
2001 4 4 04 -10.0 100.0 965 70 5 Image --
2001 4 4 10 -10.2 98.9 950 84 5 Image --
2001 4 4 16 -10.5 98.1 945 89 5 Image --
2001 4 4 22 -10.9 96.9 940 93 5 Image --
2001 4 5 04 -11.4 96.6 940 93 5 Image --
2001 4 5 10 -11.7 96.3 945 89 5 Image --
2001 4 5 16 -12.0 96.0 945 89 5 Image --
2001 4 5 22 -12.6 95.4 950 84 5 Image --
2001 4 6 04 -13.2 94.7 955 80 5 Image --
2001 4 6 10 -13.9 94.4 960 76 5 Image --
2001 4 6 16 -14.3 94.3 965 70 5 Image --
2001 4 6 22 -14.9 94.4 970 64 5 Image --
2001 4 7 04 -16.4 95.0 975 60 4 Image --
2001 4 7 10 -18.1 95.5 980 54 4 Image --
2001 4 7 16 -18.8 95.3 985 49 4 Image --
2001 4 7 22 -19.6 95.0 990 41 3 Image --
2001 4 8 04 -20.5 94.8 994 35 3 Image --
2001 4 8 10 -21.6 94.4 998 29 2 Image --
< Cyclone 200106 2001 Season Cyclone 200108 >

Help